createdAt,value
2024-03-13T00:03:07.110Z,8.15
2024-03-13T00:06:48.898Z,5.53
2024-03-13T00:10:30.967Z,5.90
2024-03-13T00:14:12.957Z,5.45
2024-03-13T00:17:57.122Z,6.88
2024-03-13T00:21:40.258Z,5.47
2024-03-13T00:25:22.177Z,4.97
2024-03-13T00:29:05.495Z,4.22
2024-03-13T00:32:47.529Z,4.65
2024-03-13T00:36:29.445Z,6.63
2024-03-13T00:40:14.929Z,7.45
2024-03-13T00:43:56.910Z,6.75
2024-03-13T00:47:38.834Z,5.97
2024-03-13T00:51:20.691Z,4.93
2024-03-13T00:55:04.155Z,5.50
2024-03-13T00:58:45.962Z,5.95
2024-03-13T01:02:28.153Z,4.43
2024-03-13T01:06:09.905Z,6.13
2024-03-13T01:09:51.803Z,3.85
2024-03-13T01:13:33.619Z,4.38
2024-03-13T01:17:16.345Z,5.15
2024-03-13T01:21:00.108Z,5.05
2024-03-13T01:24:44.100Z,6.72
2024-03-13T01:28:26.255Z,6.57
2024-03-13T01:32:09.142Z,4.60
2024-03-13T01:35:50.983Z,4.45
2024-03-13T01:39:32.792Z,4.63
2024-03-13T01:43:37.174Z,4.13
2024-03-13T01:47:39.581Z,5.85
2024-03-13T01:51:40.216Z,4.28
2024-03-13T01:55:25.175Z,5.85
2024-03-13T01:59:21.214Z,5.78
2024-03-13T02:03:03.258Z,5.53
2024-03-13T02:06:47.826Z,5.25
2024-03-13T02:10:29.932Z,6.55
2024-03-13T02:14:11.737Z,3.78
2024-03-13T02:17:55.460Z,5.97
2024-03-13T02:21:37.763Z,5.78
2024-03-13T02:25:19.739Z,5.65
2024-03-13T02:29:01.602Z,6.15
2024-03-13T02:32:43.557Z,6.90
2024-03-13T02:36:25.464Z,4.57
2024-03-13T02:40:08.958Z,3.67
2024-03-13T02:43:50.857Z,5.20
2024-03-13T02:47:32.772Z,4.28
2024-03-13T02:51:14.643Z,4.93
2024-03-13T02:54:56.592Z,4.43
2024-03-13T02:58:38.517Z,5.25
2024-03-13T03:02:20.326Z,3.38
2024-03-13T03:06:03.244Z,5.20
2024-03-13T03:09:46.000Z,2.58
2024-03-13T03:13:27.879Z,2.75
2024-03-13T03:17:10.109Z,7.25
2024-03-13T03:20:51.949Z,7.55
2024-03-13T03:24:33.921Z,5.03
2024-03-13T03:28:17.712Z,2.63
2024-03-13T03:32:00.739Z,5.10
2024-03-13T03:35:44.622Z,5.35
2024-03-13T03:39:26.615Z,5.03
2024-03-13T03:43:08.622Z,7.18
2024-03-13T03:46:50.958Z,6.40
2024-03-13T03:50:32.854Z,3.55
2024-03-13T03:54:14.679Z,4.82
2024-03-13T03:57:56.508Z,6.10
2024-03-13T04:01:38.675Z,6.57
2024-03-13T04:05:21.447Z,6.88
2024-03-13T04:09:15.804Z,4.93
2024-03-13T04:12:57.927Z,7.50
2024-03-13T04:16:42.654Z,7.05
2024-03-13T04:20:24.498Z,5.97
2024-03-13T04:24:08.731Z,3.47
2024-03-13T04:27:50.680Z,4.18
2024-03-13T04:31:34.328Z,4.43
2024-03-13T04:35:16.386Z,6.38
2024-03-13T04:38:58.263Z,5.25
2024-03-13T04:42:40.936Z,5.25
2024-03-13T04:46:22.889Z,6.50
2024-03-13T04:50:05.197Z,4.35
2024-03-13T04:53:47.220Z,3.10
2024-03-13T04:57:29.115Z,5.07
2024-03-13T05:01:18.355Z,10.07
2024-03-13T05:05:01.239Z,5.30
2024-03-13T05:08:43.259Z,5.75
2024-03-13T05:12:25.949Z,6.63
2024-03-13T05:16:10.986Z,7.03
2024-03-13T05:19:52.875Z,5.30
2024-03-13T05:23:34.730Z,6.22
2024-03-13T05:27:16.868Z,6.03
2024-03-13T05:30:58.726Z,7.65
2024-03-13T05:34:40.614Z,7.20
2024-03-13T05:38:22.468Z,9.27
2024-03-13T05:42:04.426Z,7.53
2024-03-13T05:45:46.729Z,6.75
2024-03-13T05:49:28.722Z,6.00
2024-03-13T05:53:10.748Z,8.80
2024-03-13T05:56:52.620Z,7.20
2024-03-13T06:00:34.932Z,8.30
2024-03-13T06:04:18.534Z,7.60
2024-03-13T06:08:00.321Z,7.15
2024-03-13T06:11:42.240Z,4.97
2024-03-13T06:15:24.179Z,9.90
2024-03-13T06:19:06.211Z,10.50
2024-03-13T06:22:48.787Z,6.63
2024-03-13T06:26:30.698Z,5.00
2024-03-13T06:30:13.850Z,5.22
2024-03-13T06:33:55.898Z,7.82
2024-03-13T06:37:37.929Z,5.05
2024-03-13T06:41:19.801Z,5.65
2024-03-13T06:45:01.733Z,4.75
2024-03-13T06:48:43.608Z,3.97
2024-03-13T06:52:25.653Z,2.78
2024-03-13T06:56:07.497Z,3.92
2024-03-13T06:59:49.412Z,3.95
2024-03-13T07:03:31.407Z,6.43
2024-03-13T07:07:13.380Z,5.70
2024-03-13T07:10:55.205Z,3.00
2024-03-13T07:14:37.136Z,5.07
2024-03-13T07:18:18.901Z,5.40
2024-03-13T07:22:06.650Z,3.97
2024-03-13T07:25:51.025Z,2.30
2024-03-13T07:29:32.932Z,5.65
2024-03-13T07:33:15.944Z,6.22
2024-03-13T07:36:58.347Z,2.88
2024-03-13T07:40:43.704Z,5.22
2024-03-13T07:44:25.654Z,6.47
2024-03-13T07:48:10.700Z,3.78
2024-03-13T07:51:55.773Z,5.95
2024-03-13T07:55:38.084Z,5.28
2024-03-13T07:59:20.224Z,4.68
2024-03-13T08:03:02.073Z,3.05
2024-03-13T09:06:44.660Z,4.95
2024-03-13T09:10:26.769Z,7.38
2024-03-13T09:14:09.096Z,6.65
2024-03-13T09:17:51.984Z,5.07
2024-03-13T09:21:34.875Z,7.55
2024-03-13T09:25:17.095Z,4.38
2024-03-13T09:28:58.983Z,5.50
2024-03-13T09:32:42.334Z,6.97
2024-03-13T09:36:25.973Z,5.95
2024-03-13T09:40:17.726Z,6.50
2024-03-13T09:44:01.036Z,10.05
2024-03-13T09:47:45.451Z,5.25
2024-03-13T09:51:28.546Z,6.10
2024-03-13T09:55:14.386Z,7.80
2024-03-13T09:58:57.763Z,4.53
2024-03-13T10:02:42.401Z,4.50
2024-03-13T10:06:26.135Z,4.70
2024-03-13T10:10:29.648Z,5.03
2024-03-13T10:14:12.831Z,5.63
2024-03-13T10:18:22.084Z,6.22
2024-03-13T10:22:05.132Z,4.03
2024-03-13T10:25:48.743Z,8.02
2024-03-13T10:29:35.502Z,6.40
2024-03-13T10:33:18.150Z,6.93
2024-03-13T10:37:08.496Z,8.55
2024-03-13T10:40:58.260Z,5.65
2024-03-13T10:44:41.594Z,8.93
2024-03-13T10:48:25.253Z,6.30
2024-03-13T10:52:13.073Z,9.07
2024-03-13T10:55:55.121Z,5.65
2024-03-13T10:59:36.962Z,8.57
2024-03-13T11:03:20.876Z,5.20
2024-03-13T11:07:02.825Z,5.43
2024-03-13T11:10:51.534Z,5.85
2024-03-13T11:14:42.923Z,6.28
2024-03-13T11:18:25.714Z,6.03
2024-03-13T11:22:09.607Z,5.88
2024-03-13T11:25:51.766Z,8.82
2024-03-13T11:29:45.315Z,6.97
2024-03-13T11:33:27.570Z,7.18
2024-03-13T11:37:12.801Z,8.52
2024-03-13T11:40:56.089Z,8.55
2024-03-13T11:44:39.101Z,6.25
2024-03-13T11:48:24.160Z,7.32
2024-03-13T11:52:10.114Z,9.13
2024-03-13T11:55:54.188Z,8.25
2024-03-13T11:59:39.515Z,11.95
2024-03-13T12:03:22.185Z,8.05
2024-03-13T12:07:04.385Z,7.15
2024-03-13T12:10:50.223Z,9.48
2024-03-13T12:14:33.369Z,9.63
2024-03-13T12:18:17.748Z,8.27
2024-03-13T12:22:03.633Z,7.13
2024-03-13T12:25:46.145Z,8.25
2024-03-13T12:29:29.192Z,10.15
2024-03-13T12:33:12.729Z,7.43
2024-03-13T12:36:54.769Z,7.32
2024-03-13T12:40:36.628Z,8.80
2024-03-13T12:44:19.656Z,7.75
2024-03-13T12:48:04.285Z,7.57
2024-03-13T12:51:46.331Z,7.00
2024-03-13T12:55:28.606Z,5.68
2024-03-13T12:59:12.396Z,6.95
2024-03-13T13:03:00.357Z,9.68
2024-03-13T13:06:43.414Z,7.20
2024-03-13T13:10:27.107Z,8.90
2024-03-13T13:14:11.928Z,8.85
2024-03-13T13:17:53.969Z,9.55
2024-03-13T13:21:36.042Z,8.68
2024-03-13T13:25:19.843Z,5.75
2024-03-13T13:32:48.087Z,7.22
2024-03-13T13:36:30.157Z,10.68
2024-03-13T13:40:17.215Z,5.70
2024-03-13T13:44:00.453Z,6.95
2024-03-13T13:47:45.797Z,7.22
2024-03-13T13:51:28.724Z,7.32
2024-03-13T13:55:11.439Z,8.75
2024-03-13T13:58:53.271Z,7.20
2024-03-13T14:02:35.200Z,9.63
2024-03-13T14:06:17.255Z,8.85
2024-03-13T14:09:59.216Z,8.55
2024-03-13T14:13:44.064Z,6.68
2024-03-13T14:17:28.541Z,9.57
2024-03-13T14:21:11.586Z,9.27
2024-03-13T14:24:55.759Z,7.45
2024-03-13T14:28:37.616Z,7.07
2024-03-13T14:32:19.478Z,6.95
2024-03-13T14:36:01.489Z,7.75
2024-03-13T14:39:43.367Z,7.63
2024-03-13T14:43:25.123Z,6.28
2024-03-13T14:47:10.058Z,5.13
2024-03-13T14:50:54.153Z,8.90
2024-03-13T14:54:36.046Z,7.25
2024-03-13T14:58:20.664Z,6.88
2024-03-13T15:02:03.772Z,6.55
2024-03-13T15:05:45.769Z,6.35
2024-03-13T15:09:27.776Z,5.22
2024-03-13T15:13:09.665Z,5.65
2024-03-13T15:16:54.008Z,7.70
2024-03-13T15:20:36.817Z,6.93
2024-03-13T15:24:18.732Z,6.22
2024-03-13T15:28:01.918Z,8.50
2024-03-13T15:31:43.774Z,9.38
2024-03-13T15:35:25.609Z,6.75
2024-03-13T15:39:07.515Z,7.85
2024-03-13T15:42:49.455Z,6.13
2024-03-13T15:46:31.682Z,6.95
2024-03-13T15:50:24.304Z,10.27
2024-03-13T15:54:12.189Z,9.30
2024-03-13T15:57:54.257Z,7.22
2024-03-13T16:01:37.146Z,7.43
2024-03-13T16:05:23.375Z,9.90
2024-03-13T16:09:13.298Z,7.93
2024-03-13T16:12:56.041Z,10.27
2024-03-13T16:16:38.148Z,6.40
2024-03-13T16:36:23.572Z,7.22
2024-03-13T16:40:06.432Z,11.60
2024-03-13T16:43:50.824Z,12.30
2024-03-13T16:47:32.865Z,9.63
2024-03-13T16:51:14.906Z,9.40
2024-03-13T16:54:56.972Z,6.72
2024-03-13T16:58:39.025Z,7.78
2024-03-13T17:02:23.861Z,9.18
2024-03-13T17:06:06.150Z,8.50
2024-03-13T17:09:51.499Z,6.95
2024-03-13T17:13:34.314Z,8.18
2024-03-13T17:17:16.315Z,8.05
2024-03-13T17:20:58.555Z,9.95
2024-03-13T17:24:42.441Z,8.15
2024-03-13T17:28:24.292Z,8.98
2024-03-13T17:32:07.586Z,7.68
2024-03-13T17:35:52.207Z,8.00
2024-03-13T17:39:34.461Z,9.55
2024-03-13T17:43:17.129Z,12.82
2024-03-13T17:46:59.016Z,5.50
2024-03-13T17:50:43.827Z,8.23
2024-03-13T17:54:27.257Z,11.07
2024-03-13T17:58:10.618Z,8.93
2024-03-13T18:01:52.516Z,9.85
2024-03-13T18:05:38.921Z,9.75
2024-03-13T18:09:24.618Z,6.53
2024-03-13T18:13:06.820Z,19.77
2024-03-13T18:16:48.836Z,9.10
2024-03-13T18:20:32.720Z,9.65
2024-03-13T18:24:14.764Z,12.60
2024-03-13T18:27:56.662Z,12.48
2024-03-13T18:31:38.564Z,11.93
2024-03-13T18:35:23.059Z,8.68
2024-03-13T18:39:08.130Z,8.30
2024-03-13T18:42:51.550Z,10.23
2024-03-13T18:46:34.206Z,12.40
2024-03-13T18:50:16.270Z,11.27
2024-03-13T18:53:59.017Z,12.43
2024-03-13T18:57:41.937Z,13.13
2024-03-13T19:01:24.047Z,9.15
2024-03-13T19:05:11.046Z,13.13
2024-03-13T19:09:00.520Z,13.32
2024-03-13T19:12:42.546Z,9.57
2024-03-13T19:16:27.506Z,12.57
2024-03-13T19:20:09.776Z,10.18
2024-03-13T19:23:54.450Z,11.60
2024-03-13T19:27:36.380Z,12.48
2024-03-13T19:31:23.531Z,10.77
2024-03-13T19:35:09.025Z,12.68
2024-03-13T19:38:50.980Z,10.82
2024-03-13T19:42:33.635Z,8.05
2024-03-13T19:46:15.602Z,9.43
2024-03-13T19:50:00.856Z,9.88
2024-03-13T19:53:42.811Z,10.07
2024-03-13T19:57:27.884Z,10.85
2024-03-13T20:01:10.748Z,10.05
2024-03-13T20:04:52.935Z,10.13
2024-03-13T20:08:36.380Z,10.50
2024-03-13T20:12:18.638Z,8.38
2024-03-13T20:16:03.108Z,14.50
2024-03-13T20:19:45.135Z,10.40
2024-03-13T20:23:29.241Z,9.90
2024-03-13T20:27:11.311Z,12.18
2024-03-13T20:30:53.132Z,11.68
2024-03-13T20:34:35.025Z,9.13
2024-03-13T20:38:16.802Z,11.32
2024-03-13T20:41:58.797Z,9.70
2024-03-13T20:45:40.732Z,10.77
2024-03-13T20:49:23.013Z,10.93
2024-03-13T20:53:06.931Z,10.48
2024-03-13T20:56:49.701Z,7.75
2024-03-13T21:00:31.889Z,9.68
2024-03-13T21:04:16.792Z,9.65
2024-03-13T21:07:59.785Z,7.82
2024-03-13T21:11:41.783Z,12.02
2024-03-13T21:15:24.316Z,11.75
2024-03-13T21:19:06.552Z,9.30
2024-03-13T21:22:48.552Z,12.13
2024-03-13T21:26:34.114Z,10.63
2024-03-13T21:30:16.532Z,9.48
2024-03-13T21:34:02.573Z,9.73
2024-03-13T21:37:46.040Z,9.18
2024-03-13T21:41:28.002Z,11.05
2024-03-13T21:45:11.141Z,13.65
2024-03-13T21:48:53.162Z,10.35
2024-03-13T21:52:35.207Z,8.68
2024-03-13T21:56:17.788Z,10.15
2024-03-13T21:59:59.860Z,12.40
2024-03-13T22:03:41.693Z,11.82
2024-03-13T22:07:25.402Z,10.63
2024-03-13T22:11:07.308Z,11.63
2024-03-13T22:14:49.207Z,9.60
2024-03-13T22:18:33.534Z,12.88
2024-03-13T22:22:15.437Z,7.32
2024-03-13T22:25:57.901Z,10.00
2024-03-13T22:29:40.235Z,10.73
2024-03-13T22:33:22.182Z,10.48
2024-03-13T22:37:05.081Z,11.18
2024-03-13T22:40:46.974Z,9.50
2024-03-13T22:44:28.895Z,12.68
2024-03-13T22:48:10.884Z,10.73
2024-03-13T22:51:52.961Z,11.98
2024-03-13T22:55:37.852Z,9.40
2024-03-13T22:59:21.290Z,9.10
2024-03-13T23:03:06.703Z,10.20
2024-03-13T23:06:48.671Z,10.35
2024-03-13T23:10:30.789Z,12.38
2024-03-13T23:14:12.828Z,12.02
2024-03-13T23:17:54.902Z,11.00
2024-03-13T23:21:39.923Z,11.88
2024-03-13T23:25:23.427Z,10.38
2024-03-13T23:29:09.580Z,11.38
2024-03-13T23:32:51.692Z,9.32
2024-03-13T23:36:33.659Z,11.27
2024-03-13T23:40:16.894Z,13.05
2024-03-13T23:43:58.728Z,9.90
2024-03-13T23:47:46.390Z,10.88
2024-03-13T23:51:28.952Z,12.38
2024-03-13T23:55:10.908Z,9.93
2024-03-13T23:58:52.686Z,11.65
